Time;durP1;ratioP1;P1;durP2;ratioP2;P2;SDS_P1;SDS_P2;PMS_P1;PMS_P2;Temp;Humidity;BMP_temperature;BMP_pressure;BME280_temperature;BME280_humidity;BME280_pressure;Samples;Min_cycle;Max_cycle;Signal;HPM_P1;HPM_P2
2024/04/02 00:00:05;;;;;;;;;;;;;;;;;;2071643;28;20060;-76
2024/04/02 00:01:07;;;;;;;3.65;2.30;;;;;;;;;;2073069;28;20028;-76
2024/04/02 00:02:09;;;;;;;4.60;2.40;;;;;;;;;;2072784;28;20136;-75
2024/04/02 00:03:10;;;;;;;4.00;2.50;;;;;;;;;;2071800;28;20494;-76
2024/04/02 00:04:12;;;;;;;4.80;2.75;;;;;;;;;;2081571;28;20046;-76
2024/04/02 00:05:13;;;;;;;3.65;2.53;;;;;;;;;;2081133;28;20053;-76
2024/04/02 00:06:15;;;;;;;;;;;;;;;;;;2082589;28;20046;-76
2024/04/02 00:07:15;;;;;;;4.15;2.55;;;;;;;;;;2080968;28;19925;-76
2024/04/02 00:08:16;;;;;;;;;;;;;;;;;;2081625;28;20123;-75
2024/04/02 00:09:19;;;;;;;3.50;2.23;;;;;;;;;;2081430;28;19925;-76
2024/04/02 00:10:20;;;;;;;3.63;2.35;;;;;;;;;;2082795;28;20049;-76
2024/04/02 00:11:20;;;;;;;;;;;;;;;;;;2081598;28;20079;-76
2024/04/02 00:12:21;;;;;;;3.47;2.43;;;;;;;;;;2081948;28;24993;-76
2024/04/02 00:13:23;;;;;;;;;;;;;;;;;;2082186;28;20160;-75
2024/04/02 00:14:23;;;;;;;3.63;2.70;;;;;;;;;;2080859;28;20472;-75
2024/04/02 00:15:24;;;;;;;;;;;;;;;;;;2083123;28;20045;-75
2024/04/02 00:16:25;;;;;;;4.70;2.33;;;;;;;;;;2082917;28;19921;-75
2024/04/02 00:17:26;;;;;;;;;;;;;;;;;;2081160;28;20045;-75
2024/04/02 00:18:27;;;;;;;4.30;2.42;;;;;;;;;;2082708;28;20107;-75
2024/04/02 00:19:28;;;;;;;3.55;2.65;;;;;;;;;;2081470;28;20424;-76
2024/04/02 00:20:28;;;;;;;;;;;;;;;;;;2083502;28;20048;-75
2024/04/02 00:21:30;;;;;;;4.73;2.40;;;;;;;;;;2079742;28;19925;-75
2024/04/02 00:22:31;;;;;;;4.95;2.97;;;;;;;;;;2083072;28;20049;-75
2024/04/02 00:23:31;;;;;;;;;;;;;;;;;;2083230;28;20442;-75
2024/04/02 00:24:33;;;;;;;4.70;2.63;;;;;;;;;;2079842;28;19929;-77
2024/04/02 00:25:35;;;;;;;5.40;2.90;;;;;;;;;;2082380;28;20128;-79
2024/04/02 00:26:36;;;;;;;4.50;2.85;;;;;;;;;;2084718;28;20045;-78
2024/04/02 00:27:37;;;;;;;;;;;;;;;;;;2082026;28;20241;-79
2024/04/02 00:28:39;;;;;;;3.27;2.33;;;;;;;;;;2080981;28;20304;-79
2024/04/02 00:29:44;;;;;;;4.18;2.67;;;;;;;;;;2081179;28;20570;-77
2024/04/02 00:30:45;;;;;;;3.40;2.50;;;;;;;;;;2081191;28;20045;-79
2024/04/02 00:31:45;;;;;;;;;;;;;;;;;;2082661;28;20128;-79
2024/04/02 00:32:47;;;;;;;4.00;2.30;;;;;;;;;;2082276;28;20211;-78
2024/04/02 00:33:48;;;;;;;3.53;2.63;;;;;;;;;;2079593;28;20046;-78
2024/04/02 00:34:48;;;;;;;;;;;;;;;;;;2080807;28;20060;-79
2024/04/02 00:35:59;;;;;;;3.63;2.50;;;;;;;;;;2082313;28;19921;-78
2024/04/02 00:37:00;;;;;;;3.60;2.47;;;;;;;;;;2081279;28;20049;-78
2024/04/02 00:38:01;;;;;;;4.72;3.08;;;;;;;;;;2083967;28;20053;-79
2024/04/02 00:39:03;;;;;;;;;;;;;;;;;;2082428;28;20104;-77
2024/04/02 00:40:06;;;;;;;4.15;2.60;;;;;;;;;;2082282;28;19928;-79
2024/04/02 00:41:08;;;;;;;4.10;2.58;;;;;;;;;;2083605;28;20059;-78
2024/04/02 00:42:09;;;;;;;5.00;2.63;;;;;;;;;;2082691;28;20049;-78
2024/04/02 00:43:11;;;;;;;;;;;;;;;;;;2082347;28;20053;-78
2024/04/02 00:44:13;;;;;;;4.07;2.45;;;;;;;;;;2081978;28;19925;-78
2024/04/02 00:45:13;;;;;;;4.53;2.67;;;;;;;;;;2082226;28;20050;-77
2024/04/02 00:46:14;;;;;;;;;;;;;;;;;;2083922;28;20045;-78
2024/04/02 00:47:16;;;;;;;4.33;2.50;;;;;;;;;;2081127;28;20015;-78
2024/04/02 00:48:17;;;;;;;2.85;2.13;;;;;;;;;;2081126;28;20111;-78
2024/04/02 00:49:18;;;;;;;3.45;2.72;;;;;;;;;;2078068;28;20524;-79
2024/04/02 00:50:18;;;;;;;;;;;;;;;;;;2076147;28;20263;-78
2024/04/02 00:51:20;;;;;;;5.70;2.27;;;;;;;;;;2075101;28;19929;-77
2024/04/02 00:52:21;;;;;;;3.00;2.20;;;;;;;;;;2077323;28;20092;-79
2024/04/02 00:53:22;;;;;;;;;;;;;;;;;;2077699;28;20060;-78
2024/04/02 00:54:23;;;;;;;5.37;2.83;;;;;;;;;;2076164;28;20274;-78
2024/04/02 00:55:27;;;;;;;4.10;2.47;;;;;;;;;;2074987;28;20521;-78
2024/04/02 00:56:27;;;;;;;4.45;2.20;;;;;;;;;;2074422;28;20544;-79
2024/04/02 00:57:28;;;;;;;;;;;;;;;;;;2075475;28;20056;-78
2024/04/02 00:58:29;;;;;;;3.73;2.40;;;;;;;;;;2073439;28;20274;-78
2024/04/02 00:59:32;;;;;;;;;;;;;;;;;;2076223;28;20049;-78
2024/04/02 01:00:36;;;;;;;2.97;2.10;;;;;;;;;;2074525;28;20478;-79
2024/04/02 01:01:37;;;;;;;4.05;2.50;;;;;;;;;;2075098;28;20139;-78
2024/04/02 01:02:38;;;;;;;;;;;;;;;;;;2076579;28;20049;-78
2024/04/02 01:03:39;;;;;;;5.70;2.78;;;;;;;;;;2074775;28;20338;-78
2024/04/02 01:04:39;;;;;;;;;;;;;;;;;;2075974;28;20050;-78
2024/04/02 01:05:40;;;;;;;4.03;2.40;;;;;;;;;;2074738;28;20580;-79
2024/04/02 01:06:42;;;;;;;;;;;;;;;;;;2076071;28;20120;-78
2024/04/02 01:07:43;;;;;;;3.28;2.20;;;;;;;;;;2076505;28;20044;-78
2024/04/02 01:08:43;;;;;;;;;;;;;;;;;;2075252;28;20536;-78
2024/04/02 01:09:44;;;;;;;2.90;2.40;;;;;;;;;;2068833;28;19933;-78
2024/04/02 01:10:47;;;;;;;;;;;;;;;;;;2068462;28;20064;-78
2024/04/02 01:11:49;;;;;;;3.45;2.33;;;;;;;;;;2067972;28;19929;-79
2024/04/02 01:12:50;;;;;;;3.50;2.10;;;;;;;;;;2067067;28;20134;-79
2024/04/02 01:13:51;;;;;;;;;;;;;;;;;;2068559;28;20088;-78
2024/04/02 01:14:52;;;;;;;3.13;2.42;;;;;;;;;;2066110;28;19944;-78
2024/04/02 01:16:02;;;;;;;5.93;2.63;;;;;;;;;;2074406;28;20117;-78
2024/04/02 01:17:03;;;;;;;3.92;2.45;;;;;;;;;;2076308;28;20064;-78
2024/04/02 01:18:04;;;;;;;3.85;2.55;;;;;;;;;;2075984;28;20092;-78
2024/04/02 01:19:05;;;;;;;2.80;2.20;;;;;;;;;;2076619;28;20132;-77
2024/04/02 01:20:08;;;;;;;;;;;;;;;;;;2076621;28;20065;-77
2024/04/02 01:21:08;;;;;;;3.72;2.10;;;;;;;;;;2074769;28;19929;-76
2024/04/02 01:22:09;;;;;;;;;;;;;;;;;;2076177;28;20110;-77
2024/04/02 01:23:11;;;;;;;3.47;2.27;;;;;;;;;;2074259;28;20304;-76
2024/04/02 01:24:11;;;;;;;4.82;2.38;;;;;;;;;;2075264;28;20045;-76
2024/04/02 01:25:12;;;;;;;;;;;;;;;;;;2076820;28;20096;-76
2024/04/02 01:26:14;;;;;;;6.63;2.30;;;;;;;;;;2076962;28;20304;-75
2024/04/02 01:27:16;;;;;;;3.80;2.35;;;;;;;;;;2075152;28;20092;-76
2024/04/02 01:28:17;;;;;;;3.33;2.30;;;;;;;;;;2073684;28;20073;-77
2024/04/02 01:29:17;;;;;;;;;;;;;;;;;;2074907;28;20097;-78
2024/04/02 01:30:19;;;;;;;4.10;2.20;;;;;;;;;;2075153;28;19925;-76
2024/04/02 01:31:20;;;;;;;5.40;2.42;;;;;;;;;;2077228;28;20053;-77
2024/04/02 01:32:20;;;;;;;;;;;;;;;;;;2075496;28;20141;-77
2024/04/02 01:33:21;;;;;;;3.53;2.13;;;;;;;;;;2076797;28;20300;-76
2024/04/02 01:34:21;;;;;;;;;;;;;;;;;;2075526;28;20457;-74
2024/04/02 01:35:23;;;;;;;3.93;2.40;;;;;;;;;;2074771;28;19922;-76
2024/04/02 01:36:24;;;;;;;3.83;2.55;;;;;;;;;;2075340;28;20620;-75
2024/04/02 01:37:24;;;;;;;;;;;;;;;;;;2073493;28;20054;-73
2024/04/02 01:38:26;;;;;;;3.07;2.20;;;;;;;;;;2074650;28;19945;-74
2024/04/02 01:39:27;;;;;;;3.45;2.40;;;;;;;;;;2075374;28;20551;-73
2024/04/02 01:40:28;;;;;;;2.85;2.35;;;;;;;;;;2075430;28;20399;-74
2024/04/02 01:41:30;;;;;;;;;;;;;;;;;;2076635;28;20099;-74
2024/04/02 01:42:31;;;;;;;3.20;2.30;;;;;;;;;;2075495;28;20067;-74
2024/04/02 01:43:32;;;;;;;;;;;;;;;;;;2078273;28;20072;-74
2024/04/02 01:44:33;;;;;;;3.28;2.10;;;;;;;;;;2074491;28;19924;-74
2024/04/02 01:45:33;;;;;;;;;;;;;;;;;;2075316;28;20053;-74
2024/04/02 01:46:34;;;;;;;2.73;2.33;;;;;;;;;;2076340;28;20522;-74
2024/04/02 01:47:36;;;;;;;;;;;;;;;;;;2076467;28;20136;-74
2024/04/02 01:48:36;;;;;;;3.88;2.70;;;;;;;;;;2071454;28;19975;-74
2024/04/02 01:49:37;;;;;;;2.90;2.30;;;;;;;;;;2068675;28;20558;-74
2024/04/02 01:50:37;;;;;;;;;;;;;;;;;;2070444;28;20054;-73
2024/04/02 01:51:39;;;;;;;3.50;2.53;;;;;;;;;;2073159;28;19928;-74
2024/04/02 01:52:40;;;;;;;3.50;2.38;;;;;;;;;;2075388;28;20413;-74
2024/04/02 01:53:42;;;;;;;;;;;;;;;;;;2075441;28;20073;-74
2024/04/02 01:54:43;;;;;;;4.00;2.80;;;;;;;;;;2068918;28;20602;-74
2024/04/02 01:55:45;;;;;;;;;;;;;;;;;;2068258;28;20061;-73
2024/04/02 01:56:47;;;;;;;3.55;2.40;;;;;;;;;;2067036;28;19921;-74
2024/04/02 01:57:47;;;;;;;3.10;2.20;;;;;;;;;;2068555;28;20058;-74
2024/04/02 01:58:49;;;;;;;;;;;;;;;;;;2069231;28;20050;-74
2024/04/02 01:59:50;;;;;;;5.15;3.13;;;;;;;;;;2067888;28;19987;-74
2024/04/02 02:00:50;;;;;;;;;;;;;;;;;;2075306;28;20453;-74
2024/04/02 02:01:51;;;;;;;4.07;2.20;;;;;;;;;;2075922;28;19921;-74
2024/04/02 02:02:52;;;;;;;;;;;;;;;;;;2075726;28;20049;-74
2024/04/02 02:03:53;;;;;;;4.88;2.63;;;;;;;;;;2073530;28;19925;-74
2024/04/02 02:04:53;;;;;;;;;;;;;;;;;;2076708;28;20123;-74
2024/04/02 02:05:54;;;;;;;3.73;2.70;;;;;;;;;;2075144;28;20009;-74
2024/04/02 02:06:55;;;;;;;;;;;;;;;;;;2077767;28;20053;-74
2024/04/02 02:07:56;;;;;;;3.38;2.40;;;;;;;;;;2076153;28;19974;-74
2024/04/02 02:08:57;;;;;;;3.55;2.42;;;;;;;;;;2073570;28;20045;-74
2024/04/02 02:09:58;;;;;;;;;;;;;;;;;;2077543;28;20049;-74
2024/04/02 02:11:03;;;;;;;3.90;2.67;;;;;;;;;;2075026;28;20011;-74
2024/04/02 02:12:06;;;;;;;4.22;2.67;;;;;;;;;;2073858;28;20056;-74
2024/04/02 02:13:08;;;;;;;3.70;2.92;;;;;;;;;;2076296;28;20049;-74
2024/04/02 02:14:09;;;;;;;3.88;2.80;;;;;;;;;;2077298;28;20525;-74
2024/04/02 02:15:09;;;;;;;;;;;;;;;;;;2076617;28;20064;-74
2024/04/02 02:16:10;;;;;;;5.17;2.83;;;;;;;;;;2073538;28;19943;-74
2024/04/02 02:17:12;;;;;;;;;;;;;;;;;;2075772;28;20120;-73
2024/04/02 02:18:12;;;;;;;3.85;2.40;;;;;;;;;;2074746;28;19928;-74
2024/04/02 02:19:13;;;;;;;;;;;;;;;;;;2075300;28;20055;-74
2024/04/02 02:20:14;;;;;;;4.20;2.80;;;;;;;;;;2076620;28;20023;-74
2024/04/02 02:21:15;;;;;;;4.55;3.03;;;;;;;;;;2073286;28;20126;-74
2024/04/02 02:22:16;;;;;;;5.25;3.35;;;;;;;;;;2075124;28;20102;-74
2024/04/02 02:23:17;;;;;;;;;;;;;;;;;;2076895;28;20053;-74
2024/04/02 02:24:17;;;;;;;3.80;2.80;;;;;;;;;;2076698;28;20309;-74
2024/04/02 02:25:19;;;;;;;;;;;;;;;;;;2075305;28;20060;-74
2024/04/02 02:26:20;;;;;;;4.15;3.03;;;;;;;;;;2076015;28;20297;-74
2024/04/02 02:27:22;;;;;;;;;;;;;;;;;;2074973;28;20060;-75
2024/04/02 02:28:24;;;;;;;3.42;2.63;;;;;;;;;;2076692;28;19925;-74
2024/04/02 02:29:25;;;;;;;4.88;3.05;;;;;;;;;;2075550;28;20780;-74
2024/04/02 02:30:26;;;;;;;4.35;3.40;;;;;;;;;;2074947;28;20049;-74
2024/04/02 02:31:27;;;;;;;;;;;;;;;;;;2075946;28;20048;-74
2024/04/02 02:32:28;;;;;;;3.92;2.90;;;;;;;;;;2074980;28;19925;-74
2024/04/02 02:33:29;;;;;;;;;;;;;;;;;;2075387;28;20111;-75
2024/04/02 02:34:30;;;;;;;4.97;2.90;;;;;;;;;;2075929;28;19922;-75
2024/04/02 02:35:31;;;;;;;4.72;3.17;;;;;;;;;;2076276;28;20559;-74
2024/04/02 02:36:32;;;;;;;;;;;;;;;;;;2074503;28;20045;-74
2024/04/02 02:37:33;;;;;;;4.87;2.80;;;;;;;;;;2077033;28;19925;-74
2024/04/02 02:38:34;;;;;;;;;;;;;;;;;;2077011;28;20056;-74
2024/04/02 02:39:35;;;;;;;4.25;3.08;;;;;;;;;;2073923;28;20019;-74
2024/04/02 02:40:35;;;;;;;4.90;3.10;;;;;;;;;;2076858;28;20046;-74
2024/04/02 02:41:36;;;;;;;;;;;;;;;;;;2076085;28;20073;-74
2024/04/02 02:42:39;;;;;;;5.33;3.60;;;;;;;;;;2075715;28;19925;-75
2024/04/02 02:43:40;;;;;;;4.70;3.22;;;;;;;;;;2076315;28;20434;-75
2024/04/02 02:44:41;;;;;;;;;;;;;;;;;;2074313;28;20183;-76
2024/04/02 02:45:49;;;;;;;5.10;3.00;;;;;;;;;;2073027;28;19921;-76
2024/04/02 02:46:50;;;;;;;4.65;2.90;;;;;;;;;;2077094;28;20046;-78
2024/04/02 02:47:52;;;;;;;4.60;3.20;;;;;;;;;;2073578;28;20748;-79
2024/04/02 02:48:52;;;;;;;;;;;;;;;;;;2068475;28;20065;-77
2024/04/02 02:49:53;;;;;;;4.20;3.10;;;;;;;;;;2066484;28;19921;-77
2024/04/02 02:50:54;;;;;;;;;;;;;;;;;;2066264;28;20054;-77
2024/04/02 02:51:55;;;;;;;4.57;3.20;;;;;;;;;;2066508;28;19983;-79
2024/04/02 02:52:56;;;;;;;3.78;3.05;;;;;;;;;;2065837;28;20112;-79
2024/04/02 02:53:56;;;;;;;;;;;;;;;;;;2067170;28;20137;-77
2024/04/02 02:54:58;;;;;;;4.87;3.17;;;;;;;;;;2066231;28;19921;-79
2024/04/02 02:56:00;;;;;;;4.75;3.13;;;;;;;;;;2067055;28;20141;-78
2024/04/02 02:57:00;;;;;;;5.55;3.38;;;;;;;;;;2069397;28;20093;-78
2024/04/02 02:58:03;;;;;;;;;;;;;;;;;;2065473;28;20505;-78
2024/04/02 02:59:04;;;;;;;4.82;3.30;;;;;;;;;;2065993;28;19945;-78
2024/04/02 03:00:07;;;;;;;;;;;;;;;;;;2064814;28;20427;-77
2024/04/02 03:01:07;;;;;;;5.20;3.67;;;;;;;;;;2065456;28;19917;-77
2024/04/02 03:02:09;;;;;;;;;;;;;;;;;;2068055;28;20089;-77
2024/04/02 03:03:10;;;;;;;3.75;3.00;;;;;;;;;;2067325;28;20001;-76
2024/04/02 03:04:10;;;;;;;;;;;;;;;;;;2068897;28;20413;-77
2024/04/02 03:05:11;;;;;;;3.60;3.00;;;;;;;;;;2067668;28;19928;-77
2024/04/02 03:06:13;;;;;;;;;;;;;;;;;;2067822;28;20045;-76
2024/04/02 03:07:14;;;;;;;4.55;3.20;;;;;;;;;;2066853;28;19929;-77
2024/04/02 03:08:15;;;;;;;3.30;2.80;;;;;;;;;;2066062;28;20061;-77
2024/04/02 03:09:17;;;;;;;;;;;;;;;;;;2066230;28;20081;-77
2024/04/02 03:10:18;;;;;;;3.97;3.28;;;;;;;;;;2066995;28;19921;-76
2024/04/02 03:11:18;;;;;;;;;;;;;;;;;;2068304;28;20065;-76
2024/04/02 03:12:20;;;;;;;4.57;3.40;;;;;;;;;;2068350;28;19928;-75
2024/04/02 03:13:24;;;;;;;4.03;3.08;;;;;;;;;;2068354;28;20081;-76
2024/04/02 03:14:25;;;;;;;4.85;3.20;;;;;;;;;;2065861;28;20084;-76
2024/04/02 03:15:25;;;;;;;;;;;;;;;;;;2066324;28;20054;-76
2024/04/02 03:16:27;;;;;;;4.93;2.63;;;;;;;;;;2066044;28;20395;-76
2024/04/02 03:17:28;;;;;;;3.67;2.95;;;;;;;;;;2068645;28;20053;-76
2024/04/02 03:18:28;;;;;;;;;;;;;;;;;;2069384;28;20045;-76
2024/04/02 03:19:29;;;;;;;3.23;2.47;;;;;;;;;;2074895;28;20543;-77
2024/04/02 03:20:31;;;;;;;4.22;3.03;;;;;;;;;;2073748;28;20426;-76
2024/04/02 03:21:32;;;;;;;4.15;2.70;;;;;;;;;;2074806;28;20046;-77
2024/04/02 03:22:32;;;;;;;;;;;;;;;;;;2075353;28;20057;-77
2024/04/02 03:23:34;;;;;;;5.10;2.67;;;;;;;;;;2075115;28;19972;-75
2024/04/02 03:24:35;;;;;;;5.15;3.10;;;;;;;;;;2073447;28;20416;-76
2024/04/02 03:25:35;;;;;;;;;;;;;;;;;;2074572;28;20045;-77
2024/04/02 03:26:37;;;;;;;4.60;3.17;;;;;;;;;;2076309;28;19925;-77
2024/04/02 03:27:38;;;;;;;4.10;2.83;;;;;;;;;;2074019;28;20736;-77
2024/04/02 03:28:40;;;;;;;;;;;;;;;;;;2073748;28;20053;-77
2024/04/02 03:29:41;;;;;;;4.53;3.10;;;;;;;;;;2074827;28;19956;-77
2024/04/02 03:30:43;;;;;;;;;;;;;;;;;;2076227;28;20078;-76
2024/04/02 03:31:46;;;;;;;4.97;2.80;;;;;;;;;;2075880;28;19929;-77
2024/04/02 03:32:47;;;;;;;4.13;2.75;;;;;;;;;;2075600;28;20596;-77
2024/04/02 03:33:48;;;;;;;;;;;;;;;;;;2075033;28;20156;-77
2024/04/02 03:34:49;;;;;;;5.40;3.37;;;;;;;;;;2074764;28;20369;-77
2024/04/02 03:35:50;;;;;;;4.05;2.72;;;;;;;;;;2075539;28;20049;-77
2024/04/02 03:36:50;;;;;;;;;;;;;;;;;;2074310;28;20052;-77
2024/04/02 03:37:52;;;;;;;3.23;2.83;;;;;;;;;;2075765;28;19969;-77
2024/04/02 03:38:53;;;;;;;5.55;3.30;;;;;;;;;;2075687;28;20057;-77
2024/04/02 03:39:53;;;;;;;;;;;;;;;;;;2068239;28;20470;-76
2024/04/02 03:40:55;;;;;;;9.03;3.83;;;;;;;;;;2067917;28;20008;-76
2024/04/02 03:41:56;;;;;;;3.65;2.85;;;;;;;;;;2065869;28;20104;-77
2024/04/02 03:42:58;;;;;;;4.72;3.53;;;;;;;;;;2066172;28;20070;-77
2024/04/02 03:44:00;;;;;;;4.50;3.13;;;;;;;;;;2068357;28;20054;-77
2024/04/02 03:45:02;;;;;;;5.30;3.38;;;;;;;;;;2066080;28;20526;-77
2024/04/02 03:46:03;;;;;;;4.10;3.10;;;;;;;;;;2066216;28;20064;-76
2024/04/02 03:47:05;;;;;;;5.82;3.25;;;;;;;;;;2065875;28;20058;-77
2024/04/02 03:48:08;;;;;;;5.25;3.42;;;;;;;;;;2066106;28;20868;-76
2024/04/02 03:49:10;;;;;;;5.57;3.47;;;;;;;;;;2067098;28;20280;-76
2024/04/02 03:50:10;;;;;;;3.78;2.97;;;;;;;;;;2066382;28;20050;-76
2024/04/02 03:51:11;;;;;;;;;;;;;;;;;;2068009;28;20057;-77
2024/04/02 03:52:13;;;;;;;5.83;3.33;;;;;;;;;;2066670;28;20012;-77
2024/04/02 03:53:13;;;;;;;5.30;3.13;;;;;;;;;;2066979;28;20101;-77
2024/04/02 03:54:15;;;;;;;;;;;;;;;;;;2069555;28;20096;-73
2024/04/02 03:55:15;;;;;;;4.13;2.95;;;;;;;;;;2066504;28;19925;-74
2024/04/02 03:56:16;;;;;;;;;;;;;;;;;;2066870;28;20064;-74
2024/04/02 03:57:18;;;;;;;5.43;3.10;;;;;;;;;;2066955;28;20425;-74
2024/04/02 03:58:19;;;;;;;5.95;3.05;;;;;;;;;;2066265;28;20588;-74
2024/04/02 03:59:21;;;;;;;;;;;;;;;;;;2066525;28;20071;-74
2024/04/02 04:00:22;;;;;;;3.92;3.10;;;;;;;;;;2066659;28;22059;-74
2024/04/02 04:01:22;;;;;;;;;;;;;;;;;;2067402;28;20054;-74
2024/04/02 04:02:24;;;;;;;4.70;3.43;;;;;;;;;;2066947;28;19917;-74
2024/04/02 04:03:26;;;;;;;4.65;3.20;;;;;;;;;;2065614;28;20585;-74
2024/04/02 04:04:26;;;;;;;5.28;3.30;;;;;;;;;;2067055;28;20050;-74
2024/04/02 04:05:27;;;;;;;;;;;;;;;;;;2067723;28;20529;-74
2024/04/02 04:06:29;;;;;;;6.07;3.60;;;;;;;;;;2067319;28;20336;-74
2024/04/02 04:07:30;;;;;;;5.38;3.63;;;;;;;;;;2067905;28;20058;-72
2024/04/02 04:08:32;;;;;;;6.43;3.90;;;;;;;;;;2066295;28;20493;-74
2024/04/02 04:09:33;;;;;;;6.80;3.88;;;;;;;;;;2066432;28;20522;-73
2024/04/02 04:10:35;;;;;;;4.80;3.85;;;;;;;;;;2068667;28;20075;-75
2024/04/02 04:11:35;;;;;;;;;;;;;;;;;;2065648;28;20054;-74
2024/04/02 04:12:37;;;;;;;5.70;3.53;;;;;;;;;;2065528;28;20078;-74
2024/04/02 04:13:38;;;;;;;5.47;3.72;;;;;;;;;;2066031;28;20422;-74
2024/04/02 04:14:39;;;;;;;;;;;;;;;;;;2067060;28;20058;-73
2024/04/02 04:15:40;;;;;;;;;;;;;;;;;;2067576;28;20305;-73
2024/04/02 04:16:42;;;;;;;5.67;3.23;;;;;;;;;;2065538;28;20052;-74
2024/04/02 04:17:42;;;;;;;4.53;3.58;;;;;;;;;;2065572;28;20112;-76
2024/04/02 04:18:43;;;;;;;;;;;;;;;;;;2068144;28;20057;-74
2024/04/02 04:19:45;;;;;;;4.07;3.40;;;;;;;;;;2066565;28;20277;-74
2024/04/02 04:20:51;;;;;;;5.00;3.38;;;;;;;;;;2066918;28;20060;-74
2024/04/02 04:21:51;;;;;;;5.50;3.40;;;;;;;;;;2067054;28;20053;-75
2024/04/02 04:22:52;;;;;;;;;;;;;;;;;;2069173;28;20050;-74
2024/04/02 04:23:54;;;;;;;4.20;3.10;;;;;;;;;;2066862;28;19932;-73
2024/04/02 04:24:57;;;;;;;4.03;3.17;;;;;;;;;;2068411;28;20563;-76
2024/04/02 04:25:59;;;;;;;4.57;3.25;;;;;;;;;;2068858;28;20054;-74
2024/04/02 04:27:01;;;;;;;5.55;3.45;;;;;;;;;;2068351;28;20136;-74
2024/04/02 04:28:02;;;;;;;5.55;3.75;;;;;;;;;;2068534;28;20057;-74
2024/04/02 04:29:02;;;;;;;;;;;;;;;;;;2068522;28;20057;-74
2024/04/02 04:30:07;;;;;;;4.57;3.37;;;;;;;;;;2067566;28;19932;-74
2024/04/02 04:31:09;;;;;;;4.63;2.97;;;;;;;;;;2067307;28;20517;-74
2024/04/02 04:32:12;;;;;;;6.38;3.42;;;;;;;;;;2065998;28;20061;-74
2024/04/02 04:33:14;;;;;;;7.25;3.72;;;;;;;;;;2069246;28;20054;-75
2024/04/02 04:34:15;;;;;;;10.10;3.88;;;;;;;;;;2067100;28;20062;-76
2024/04/02 04:35:16;;;;;;;11.88;4.75;;;;;;;;;;2067596;28;20262;-78
2024/04/02 04:36:17;;;;;;;;;;;;;;;;;;2068027;28;20086;-77
2024/04/02 04:37:18;;;;;;;4.80;3.57;;;;;;;;;;2068181;28;19948;-74
2024/04/02 04:38:20;;;;;;;6.65;3.80;;;;;;;;;;2068197;28;20062;-75
2024/04/02 04:39:20;;;;;;;5.72;3.60;;;;;;;;;;2069865;28;20135;-77
2024/04/02 04:40:21;;;;;;;;;;;;;;;;;;2068236;28;20583;-75
2024/04/02 04:41:23;;;;;;;7.87;3.90;;;;;;;;;;2075887;28;19928;-74
2024/04/02 04:42:24;;;;;;;6.75;3.83;;;;;;;;;;2074838;28;20397;-74
2024/04/02 04:43:25;;;;;;;6.65;3.80;;;;;;;;;;2067549;28;20161;-74
2024/04/02 04:44:25;;;;;;;;;;;;;;;;;;2068350;28;20061;-75
2024/04/02 04:45:29;;;;;;;7.30;4.53;;;;;;;;;;2070558;28;20274;-74
2024/04/02 04:46:30;;;;;;;6.30;3.40;;;;;;;;;;2076240;28;20049;-74
2024/04/02 04:47:31;;;;;;;6.60;4.00;;;;;;;;;;2077644;28;20687;-74
2024/04/02 04:48:31;;;;;;;;;;;;;;;;;;2075778;28;20046;-74
2024/04/02 04:49:33;;;;;;;6.37;3.90;;;;;;;;;;2077115;28;20378;-74
2024/04/02 04:50:34;;;;;;;7.88;4.07;;;;;;;;;;2074614;28;20056;-74
2024/04/02 04:51:35;;;;;;;;;;;;;;;;;;2077245;28;20786;-74
2024/04/02 04:52:35;;;;;;;8.23;3.90;;;;;;;;;;2076192;28;20024;-74
2024/04/02 04:53:37;;;;;;;;;;;;;;;;;;2076001;28;20132;-74
2024/04/02 04:54:38;;;;;;;7.50;4.00;;;;;;;;;;2075522;28;20554;-74
2024/04/02 04:55:39;;;;;;;;;;;;;;;;;;2078850;28;20253;-74
2024/04/02 04:56:40;;;;;;;7.95;3.97;;;;;;;;;;2075595;28;19928;-74
2024/04/02 04:57:42;;;;;;;7.45;4.07;;;;;;;;;;2075822;28;20042;-74
2024/04/02 04:58:43;;;;;;;5.55;3.53;;;;;;;;;;2075105;28;20041;-74
2024/04/02 04:59:44;;;;;;;;;;;;;;;;;;2075602;28;20104;-75
2024/04/02 05:00:47;;;;;;;5.33;4.00;;;;;;;;;;2076545;28;19991;-74
2024/04/02 05:01:48;;;;;;;5.60;3.90;;;;;;;;;;2077683;28;20157;-74
2024/04/02 05:02:48;;;;;;;;;;;;;;;;;;2077399;28;20485;-74
2024/04/02 05:03:49;;;;;;;6.80;3.77;;;;;;;;;;2075634;28;19928;-74
2024/04/02 05:04:51;;;;;;;;;;;;;;;;;;2075691;28;20053;-74
2024/04/02 05:06:02;;;;;;;5.97;3.90;;;;;;;;;;2074704;28;20361;-74
2024/04/02 05:07:03;;;;;;;5.40;3.40;;;;;;;;;;2073099;28;20045;-74
2024/04/02 05:08:28;;;;;;;6.10;3.92;;;;;;;;;;2076896;28;20060;-74
2024/04/02 05:09:29;;;;;;;5.45;3.70;;;;;;;;;;2059842;28;20050;-74
2024/04/02 05:10:30;;;;;;;;;;;;;;;;;;2075439;28;20176;-74
2024/04/02 05:11:31;;;;;;;7.77;3.70;;;;;;;;;;2076689;28;20280;-74
2024/04/02 05:12:32;;;;;;;7.43;4.03;;;;;;;;;;2076212;28;20127;-74
2024/04/02 05:13:33;;;;;;;;;;;;;;;;;;2074756;28;20087;-74
2024/04/02 05:14:34;;;;;;;5.33;3.57;;;;;;;;;;2076878;28;19925;-74
2024/04/02 05:15:35;;;;;;;7.45;3.80;;;;;;;;;;2075491;28;20074;-74
2024/04/02 05:16:37;;;;;;;;;;;;;;;;;;2077108;28;20053;-74
2024/04/02 05:17:38;;;;;;;5.55;3.50;;;;;;;;;;2076367;28;19970;-74
2024/04/02 05:18:40;;;;;;;;;;;;;;;;;;2079046;28;20045;-74
2024/04/02 05:19:41;;;;;;;3.95;3.20;;;;;;;;;;2074809;28;19995;-74
2024/04/02 05:20:42;;;;;;;;;;;;;;;;;;2078227;28;20049;-72
2024/04/02 05:21:43;;;;;;;5.93;3.72;;;;;;;;;;2071200;28;20483;-73
2024/04/02 05:22:44;;;;;;;;;;;;;;;;;;2070632;28;20140;-72
2024/04/02 05:23:45;;;;;;;5.90;3.40;;;;;;;;;;2068175;28;20025;-73
2024/04/02 05:24:46;;;;;;;7.03;3.67;;;;;;;;;;2072877;28;20056;-73
2024/04/02 05:25:47;;;;;;;;;;;;;;;;;;2076342;28;20091;-73
2024/04/02 05:26:49;;;;;;;6.90;3.60;;;;;;;;;;2077738;28;20773;-74
2024/04/02 05:27:49;;;;;;;8.80;3.83;;;;;;;;;;2069295;28;20311;-73
2024/04/02 05:28:50;;;;;;;;;;;;;;;;;;2068093;28;20053;-73
2024/04/02 05:29:51;;;;;;;7.43;3.47;;;;;;;;;;2067993;28;19936;-74
2024/04/02 05:30:52;;;;;;;;;;;;;;;;;;2067833;28;20054;-73
2024/04/02 05:31:54;;;;;;;6.28;3.45;;;;;;;;;;2067464;28;19987;-73
2024/04/02 05:32:55;;;;;;;7.68;3.20;;;;;;;;;;2067574;28;20105;-74
2024/04/02 05:33:56;;;;;;;;;;;;;;;;;;2066888;28;20054;-74
2024/04/02 05:34:57;;;;;;;6.90;3.47;;;;;;;;;;2068416;28;19925;-73
2024/04/02 05:35:58;;;;;;;5.63;3.25;;;;;;;;;;2068786;28;20084;-74
2024/04/02 05:36:59;;;;;;;;;;;;;;;;;;2067077;28;20582;-73
2024/04/02 05:37:59;;;;;;;6.63;3.50;;;;;;;;;;2067173;28;20613;-73
2024/04/02 05:39:02;;;;;;;;;;;;;;;;;;2067719;28;20470;-74
2024/04/02 05:40:04;;;;;;;6.97;3.35;;;;;;;;;;2075736;28;21508;-74
2024/04/02 05:41:05;;;;;;;5.72;3.20;;;;;;;;;;2076484;28;20123;-73
2024/04/02 05:42:10;;;;;;;;;;;;;;;;;;2075714;28;20065;-74
2024/04/02 05:43:12;;;;;;;5.30;3.22;;;;;;;;;;2068687;28;19924;-72
2024/04/02 05:44:13;;;;;;;4.97;3.75;;;;;;;;;;2067559;28;20085;-74
2024/04/02 05:45:13;;;;;;;;;;;;;;;;;;2067951;28;20487;-74
2024/04/02 05:46:14;;;;;;;6.03;3.37;;;;;;;;;;2067902;28;19922;-74
2024/04/02 05:47:18;;;;;;;;;;;;;;;;;;2068830;28;20057;-74
2024/04/02 05:48:19;;;;;;;5.82;3.60;;;;;;;;;;2067410;28;20447;-75
2024/04/02 05:49:19;;;;;;;;;;;;;;;;;;2069476;28;20112;-74
2024/04/02 05:50:20;;;;;;;4.97;3.30;;;;;;;;;;2067642;28;20018;-73
2024/04/02 05:51:21;;;;;;;;;;;;;;;;;;2068492;28;20693;-74
2024/04/02 05:52:22;;;;;;;6.00;3.28;;;;;;;;;;2065809;28;19951;-74
2024/04/02 05:53:22;;;;;;;;;;;;;;;;;;2065894;28;20108;-74
2024/04/02 05:54:23;;;;;;;5.37;2.80;;;;;;;;;;2067391;28;19917;-74
2024/04/02 05:55:25;;;;;;;7.35;3.40;;;;;;;;;;2067625;28;20054;-74
2024/04/02 05:56:26;;;;;;;5.70;3.08;;;;;;;;;;2070266;28;20054;-74
2024/04/02 05:57:26;;;;;;;;;;;;;;;;;;2067346;28;20363;-74
2024/04/02 05:58:27;;;;;;;4.97;2.87;;;;;;;;;;2066989;28;20305;-74
2024/04/02 05:59:28;;;;;;;;;;;;;;;;;;2068341;28;20138;-74
2024/04/02 06:00:30;;;;;;;4.90;2.80;;;;;;;;;;2070094;28;19978;-74
2024/04/02 06:01:31;;;;;;;4.20;2.75;;;;;;;;;;2074444;28;20060;-74
2024/04/02 06:02:33;;;;;;;;;;;;;;;;;;2075899;28;20068;-74
2024/04/02 06:03:33;;;;;;;;;;;;;;;;;;2076182;28;19940;-73
2024/04/02 06:04:35;;;;;;;4.57;2.90;;;;;;;;;;2075578;28;19924;-73
2024/04/02 06:05:36;;;;;;;4.20;2.78;;;;;;;;;;2074173;28;20049;-74
2024/04/02 06:06:36;;;;;;;;;;;;;;;;;;2076082;28;20049;-73
2024/04/02 06:07:37;;;;;;;4.23;3.07;;;;;;;;;;2075884;28;20373;-73
2024/04/02 06:08:39;;;;;;;;;;;;;;;;;;2075001;28;20257;-73
2024/04/02 06:09:40;;;;;;;4.45;3.20;;;;;;;;;;2069969;28;20396;-73
2024/04/02 06:10:41;;;;;;;6.55;3.05;;;;;;;;;;2067247;28;20465;-73
2024/04/02 06:11:41;;;;;;;;;;;;;;;;;;2067848;28;20046;-72
2024/04/02 06:12:45;;;;;;;5.50;3.20;;;;;;;;;;2072695;28;19918;-73
2024/04/02 06:13:45;;;;;;;4.00;2.92;;;;;;;;;;2074589;28;20478;-74
2024/04/02 06:14:47;;;;;;;;;;;;;;;;;;2077917;28;20057;-76
2024/04/02 06:15:48;;;;;;;740.72;66.78;;;;;;;;;;2066598;28;19989;-75
2024/04/02 06:16:49;;;;;;;563.92;49.65;;;;;;;;;;2067897;28;20049;-73
2024/04/02 06:17:51;;;;;;;;;;;;;;;;;;2067931;28;20501;-73
2024/04/02 06:18:53;;;;;;;14.00;4.15;;;;;;;;;;2063377;28;20057;-73
2024/04/02 06:19:54;;;;;;;7.05;3.65;;;;;;;;;;2066150;28;20877;-74
2024/04/02 06:20:57;;;;;;;;;;;;;;;;;;2069811;28;20060;-73
2024/04/02 06:21:58;;;;;;;4.95;3.38;;;;;;;;;;2066106;28;19926;-73
2024/04/02 06:23:00;;;;;;;;;;;;;;;;;;2067933;28;20054;-74